Time;durP1;ratioP1;P1;durP2;ratioP2;P2;SDS_P1;SDS_P2;PMS_P1;PMS_P2;Temp;Humidity;BMP_temperature;BMP_pressure;BME280_temperature;BME280_humidity;BME280_pressure;Samples;Min_cycle;Max_cycle;Signal;HPM_P1;HPM_P2
2023/03/02 00:01:49;;;;;;;45.60;19.70;;;;;;;-3.62;74.19;101603.51;105421;1259;73904;-61
2023/03/02 00:04:20;;;;;;;49.50;22.20;;;;;;;-3.60;74.25;101603.39;105386;1266;69208;-61
2023/03/02 00:06:50;;;;;;;50.70;24.70;;;;;;;-3.58;74.39;101599.70;105408;1257;69163;-60
2023/03/02 00:09:19;;;;;;;49.00;22.40;;;;;;;-3.55;74.47;101599.34;105439;1260;74884;-61
2023/03/02 00:11:47;;;;;;;47.80;23.20;;;;;;;-3.54;74.34;101601.23;105384;1259;81738;-61
2023/03/02 00:14:15;;;;;;;47.30;24.10;;;;;;;-3.57;74.55;101602.98;105227;1259;73757;-61
2023/03/02 00:16:43;;;;;;;51.40;23.50;;;;;;;-3.59;74.61;101597.80;105369;1258;69127;-61
2023/03/02 00:19:11;;;;;;;59.50;27.40;;;;;;;-3.61;74.68;101596.20;105370;1254;69251;-61
2023/03/02 00:21:40;;;;;;;62.00;27.60;;;;;;;-3.63;74.83;101598.35;105427;1258;74779;-61
2023/03/02 00:24:08;;;;;;;56.60;26.40;;;;;;;-3.64;74.69;101591.95;105428;1257;83376;-60
2023/03/02 00:26:37;;;;;;;59.80;26.50;;;;;;;-3.68;74.64;101590.45;105443;1259;73785;-61
2023/03/02 00:29:05;;;;;;;56.70;27.50;;;;;;;-3.70;74.73;101590.54;105432;1254;69073;-61
2023/03/02 00:31:33;;;;;;;57.00;25.50;;;;;;;-3.70;74.90;101590.69;105403;1259;69163;-61
2023/03/02 00:34:02;;;;;;;56.00;25.20;;;;;;;-3.70;74.95;101592.76;105475;1260;75200;-60
2023/03/02 00:36:31;;;;;;;57.40;25.50;;;;;;;-3.73;74.70;101589.55;105468;1260;82466;-61
2023/03/02 00:38:59;;;;;;;78.70;31.00;;;;;;;-3.79;74.80;101587.11;105437;1260;72728;-61
2023/03/02 00:41:27;;;;;;;67.90;27.30;;;;;;;-3.79;74.95;101583.15;105414;1265;69913;-61
2023/03/02 00:43:56;;;;;;;56.40;24.90;;;;;;;-3.84;74.78;101588.46;105636;1260;69187;-61
2023/03/02 00:46:27;;;;;;;60.90;27.80;;;;;;;-3.83;74.75;101587.09;105503;1260;73090;-60
2023/03/02 00:48:55;;;;;;;56.70;24.40;;;;;;;-3.82;74.62;101584.77;105598;1257;82963;-61
2023/03/02 00:51:24;;;;;;;47.60;22.10;;;;;;;-3.81;74.78;101579.85;105466;1259;73388;-61
2023/03/02 00:53:52;;;;;;;52.60;24.10;;;;;;;-3.80;74.90;101580.23;105382;1257;69070;-61
2023/03/02 00:56:20;;;;;;;48.00;23.50;;;;;;;-3.75;75.11;101577.51;105439;1254;69516;-61
2023/03/02 00:58:49;;;;;;;53.00;24.50;;;;;;;-3.74;75.07;101576.36;105433;1258;75163;-61
2023/03/02 01:01:18;;;;;;;53.20;25.80;;;;;;;-3.79;75.07;101572.41;105452;1254;82218;-61
2023/03/02 01:03:49;;;;;;;53.70;26.40;;;;;;;-3.82;75.14;101572.15;105385;1257;73199;-61
2023/03/02 01:06:19;;;;;;;53.20;26.00;;;;;;;-3.84;75.08;101567.27;105448;1260;69777;-61
2023/03/02 01:08:48;;;;;;;57.20;26.60;;;;;;;-3.87;75.10;101565.96;105468;1267;69193;-61
2023/03/02 01:11:19;;;;;;;61.60;27.00;;;;;;;-3.88;75.20;101560.26;105513;1255;74718;-60
2023/03/02 01:13:49;;;;;;;61.60;27.50;;;;;;;-3.91;75.08;101559.29;105597;1260;83462;-61
2023/03/02 01:16:17;;;;;;;56.90;24.50;;;;;;;-3.96;75.18;101561.27;105414;1255;72726;-61
2023/03/02 01:18:45;;;;;;;56.20;25.20;;;;;;;-4.00;75.31;101562.14;105431;1259;69281;-61
2023/03/02 01:21:15;;;;;;;60.00;26.80;;;;;;;-4.06;75.16;101562.98;105373;1254;69154;-61
2023/03/02 01:23:43;;;;;;;63.30;26.30;;;;;;;-4.09;75.34;101564.20;105263;1260;73085;-61
2023/03/02 01:26:11;;;;;;;64.10;27.30;;;;;;;-4.14;75.37;101560.59;105431;1257;83361;-61
2023/03/02 01:28:39;;;;;;;62.80;27.20;;;;;;;-4.16;75.53;101552.10;105367;1265;72406;-60
2023/03/02 01:31:08;;;;;;;51.30;24.20;;;;;;;-4.17;75.61;101554.66;105338;1255;69287;-60
2023/03/02 01:33:36;;;;;;;58.60;26.40;;;;;;;-4.14;75.53;101558.70;105415;1255;69209;-61
2023/03/02 01:36:05;;;;;;;52.70;23.20;;;;;;;-4.13;75.61;101553.30;105654;1254;73611;-61
2023/03/02 01:38:33;;;;;;;49.70;24.90;;;;;;;-4.12;75.73;101547.35;105442;1264;82422;-61
2023/03/02 01:41:01;;;;;;;50.30;24.60;;;;;;;-4.11;75.67;101550.63;105321;1260;73743;-61
2023/03/02 01:43:29;;;;;;;49.70;23.00;;;;;;;-4.10;75.67;101545.38;105389;1254;69205;-60
2023/03/02 01:46:19;;;;;;;56.40;25.80;;;;;;;-4.09;75.62;101544.23;105418;1258;69122;-61
2023/03/02 01:49:02;;;;;;;95.00;34.90;;;;;;;-4.13;75.77;101543.38;105404;1260;72975;-61
2023/03/02 01:51:44;;;;;;;95.00;35.00;;;;;;;-4.16;76.01;101542.05;105419;1260;83431;-61
2023/03/02 01:54:21;;;;;;;105.80;37.50;;;;;;;-4.17;75.93;101541.85;105259;1260;72787;-61
2023/03/02 01:56:57;;;;;;;89.40;32.40;;;;;;;-4.18;76.03;101542.15;105241;1255;69852;-61
2023/03/02 01:59:27;;;;;;;74.90;30.50;;;;;;;-4.19;75.92;101540.38;105451;1260;69190;-61
2023/03/02 02:01:57;;;;;;;72.40;30.30;;;;;;;-4.20;76.35;101536.96;105609;1254;73930;-61
2023/03/02 02:04:28;;;;;;;62.20;27.90;;;;;;;-4.17;76.45;101533.81;105242;1254;83159;-60
2023/03/02 02:07:00;;;;;;;59.60;27.20;;;;;;;-4.18;76.49;101532.06;105427;1260;73742;-60
2023/03/02 02:09:32;;;;;;;68.60;29.60;;;;;;;-4.22;76.31;101527.11;105458;1256;69160;-61
2023/03/02 02:12:01;;;;;;;56.30;26.30;;;;;;;-4.26;76.45;101525.25;105378;1260;69119;-60
2023/03/02 02:14:29;;;;;;;60.20;27.30;;;;;;;-4.29;76.42;101525.84;105452;1259;73994;-60
2023/03/02 02:16:57;;;;;;;52.60;25.10;;;;;;;-4.25;76.31;101520.52;105388;1254;82152;-60
2023/03/02 02:19:48;;;;;;;57.80;25.90;;;;;;;-4.24;75.98;101518.52;105455;1258;73595;-60
2023/03/02 02:22:28;;;;;;;52.80;25.90;;;;;;;-4.25;76.20;101518.64;105571;1257;69154;-61
2023/03/02 02:25:00;;;;;;;66.20;29.30;;;;;;;-4.26;76.02;101519.30;105429;1255;69013;-60
2023/03/02 02:27:32;;;;;;;79.10;31.20;;;;;;;-4.27;76.22;101523.02;105470;1256;75138;-60
2023/03/02 02:30:03;;;;;;;66.30;29.30;;;;;;;-4.27;76.37;101520.98;105417;1255;83711;-60
2023/03/02 02:32:34;;;;;;;68.10;29.10;;;;;;;-4.29;76.33;101523.44;105497;1258;73628;-61
2023/03/02 02:35:21;;;;;;;70.70;31.40;;;;;;;-4.32;76.40;101524.02;105389;1261;69252;-61
2023/03/02 02:37:53;;;;;;;70.20;30.30;;;;;;;-4.31;76.55;101519.77;105386;1259;69292;-60
2023/03/02 02:40:39;;;;;;;66.00;28.70;;;;;;;-4.36;76.41;101514.27;105447;1254;74915;-60
2023/03/02 02:43:12;;;;;;;67.10;29.80;;;;;;;-4.40;76.42;101514.30;105725;1256;82560;-60
2023/03/02 02:45:40;;;;;;;69.30;30.30;;;;;;;-4.44;76.48;101515.99;105508;1254;73761;-60
2023/03/02 02:48:18;;;;;;;68.50;31.20;;;;;;;-4.46;76.55;101515.38;105408;1254;69182;-60
2023/03/02 02:50:46;;;;;;;70.30;31.40;;;;;;;-4.47;76.52;101511.05;105393;1258;69172;-61
2023/03/02 02:53:39;;;;;;;85.90;34.80;;;;;;;-4.48;76.65;101513.60;105473;1257;75108;-60
2023/03/02 02:56:09;;;;;;;99.20;39.20;;;;;;;-4.52;76.63;101508.66;105408;1254;83856;-60
2023/03/02 02:58:44;;;;;;;133.60;48.60;;;;;;;-4.55;76.65;101506.33;105467;1256;73116;-61
2023/03/02 03:01:14;;;;;;;156.90;54.60;;;;;;;-4.56;76.73;101503.19;105569;1254;69202;-61
2023/03/02 03:03:50;;;;;;;128.90;41.90;;;;;;;-4.54;76.54;101505.14;105304;1259;69182;-61
2023/03/02 03:06:24;;;;;;;91.60;36.20;;;;;;;-4.53;76.51;101501.98;105304;1261;73851;-61
2023/03/02 03:08:56;;;;;;;69.80;29.70;;;;;;;-4.53;76.48;101500.80;105336;1254;83182;-61
2023/03/02 03:11:31;;;;;;;52.00;25.30;;;;;;;-4.50;76.71;101499.01;105406;1254;72835;-61
2023/03/02 03:14:14;;;;;;;56.80;23.40;;;;;;;-4.49;76.60;101497.55;105418;1254;69256;-61
2023/03/02 03:16:45;;;;;;;57.30;27.60;;;;;;;-4.47;76.66;101497.42;105642;1254;69129;-61
2023/03/02 03:19:22;;;;;;;60.00;29.20;;;;;;;-4.51;76.67;101494.56;105663;1257;73904;-61
2023/03/02 03:21:53;;;;;;;68.10;29.80;;;;;;;-4.54;76.82;101490.14;105747;1256;82233;-63
2023/03/02 03:24:23;;;;;;;57.90;28.00;;;;;;;-4.51;77.13;101487.89;105576;1260;72626;-60
2023/03/02 03:26:53;;;;;;;55.20;24.80;;;;;;;-4.50;77.05;101483.36;105764;1257;69118;-61
2023/03/02 03:29:23;;;;;;;50.70;24.20;;;;;;;-4.55;76.71;101479.05;105496;1254;69228;-61
2023/03/02 03:31:54;;;;;;;56.80;25.20;;;;;;;-4.61;76.63;101479.12;105448;1254;75044;-62
2023/03/02 03:34:24;;;;;;;75.60;31.90;;;;;;;-4.65;76.90;101478.95;105724;1258;83368;-62
2023/03/02 03:36:52;;;;;;;68.20;27.90;;;;;;;-4.64;77.27;101474.05;105599;1254;73751;-62
2023/03/02 03:39:21;;;;;;;90.10;36.10;;;;;;;-4.65;77.18;101476.40;105435;1254;69205;-60
2023/03/02 03:41:49;;;;;;;192.40;58.60;;;;;;;-4.66;77.38;101476.85;105492;1254;69311;-60
2023/03/02 03:44:17;;;;;;;219.40;62.80;;;;;;;-4.66;77.63;101471.21;105458;1257;75130;-60
2023/03/02 03:46:46;;;;;;;164.60;48.90;;;;;;;-4.65;77.88;101471.96;105427;1254;84030;-60
2023/03/02 03:49:14;;;;;;;102.00;36.70;;;;;;;-4.56;77.86;101471.15;105453;1256;73856;-61
2023/03/02 03:51:43;;;;;;;98.60;39.40;;;;;;;-4.49;78.08;101471.27;105433;1254;69202;-60
2023/03/02 03:54:11;;;;;;;86.10;36.00;;;;;;;-4.42;77.99;101471.38;105350;1259;69153;-60
2023/03/02 03:56:43;;;;;;;71.00;30.50;;;;;;;-4.39;77.90;101474.73;105598;1256;74014;-60
2023/03/02 03:59:18;;;;;;;76.30;32.40;;;;;;;-4.38;77.70;101472.91;105392;1254;81552;-60
2023/03/02 04:01:53;;;;;;;85.70;34.80;;;;;;;-4.37;77.64;101476.04;105489;1256;73232;-60
2023/03/02 04:04:27;;;;;;;93.00;36.20;;;;;;;-4.37;77.65;101479.42;105420;1259;69182;-60
2023/03/02 04:06:55;;;;;;;83.50;37.80;;;;;;;-4.40;77.56;101474.70;105498;1256;69077;-60
2023/03/02 04:09:25;;;;;;;84.20;36.20;;;;;;;-4.43;77.45;101475.43;105497;1254;74919;-62
2023/03/02 04:11:54;;;;;;;93.20;38.70;;;;;;;-4.46;77.47;101476.66;105468;1254;82537;-59
2023/03/02 04:14:24;;;;;;;119.40;44.20;;;;;;;-4.52;77.29;101472.85;105518;1256;72740;-59
2023/03/02 04:16:53;;;;;;;126.20;47.50;;;;;;;-4.55;77.48;101472.21;105506;1259;69430;-59
2023/03/02 04:19:23;;;;;;;118.30;43.50;;;;;;;-4.56;77.50;101471.15;105489;1256;69141;-59
2023/03/02 04:21:57;;;;;;;84.50;38.90;;;;;;;-4.59;77.51;101471.52;105625;1254;74133;-59
2023/03/02 04:24:26;;;;;;;93.10;40.00;;;;;;;-4.60;77.56;101470.98;105432;1255;83783;-62
2023/03/02 04:26:56;;;;;;;83.00;38.20;;;;;;;-4.65;77.41;101470.41;105474;1254;72687;-59
2023/03/02 04:29:26;;;;;;;175.70;56.40;;;;;;;-4.72;77.19;101466.89;105464;1254;69200;-59
2023/03/02 04:31:55;;;;;;;85.40;38.20;;;;;;;-4.77;77.44;101472.14;105531;1254;69256;-59
2023/03/02 04:34:25;;;;;;;73.10;34.60;;;;;;;-4.81;77.40;101473.52;105503;1254;74835;-59
2023/03/02 04:36:54;;;;;;;80.20;34.80;;;;;;;-4.84;77.29;101479.01;105527;1254;83517;-59
2023/03/02 04:39:23;;;;;;;66.70;31.10;;;;;;;-4.81;77.48;101472.79;105742;1254;72025;-60
2023/03/02 04:41:52;;;;;;;68.70;29.10;;;;;;;-4.78;77.47;101472.11;105495;1254;69119;-60
2023/03/02 04:44:21;;;;;;;58.60;27.20;;;;;;;-4.80;77.20;101470.32;105430;1254;69089;-60
2023/03/02 04:46:50;;;;;;;57.40;26.80;;;;;;;-4.82;77.14;101467.48;105658;1256;73260;-60
2023/03/02 04:49:19;;;;;;;63.40;25.90;;;;;;;-4.84;77.04;101467.59;105588;1254;82467;-60
2023/03/02 04:51:48;;;;;;;61.90;28.80;;;;;;;-4.82;77.22;101466.77;105737;1256;73931;-60
2023/03/02 04:54:21;;;;;;;67.60;29.40;;;;;;;-4.85;77.35;101460.21;105609;1256;69208;-60
2023/03/02 04:56:50;;;;;;;65.80;29.60;;;;;;;-4.89;77.35;101457.14;105481;1257;69182;-60
2023/03/02 04:59:22;;;;;;;64.20;29.20;;;;;;;-4.89;77.40;101458.83;105488;1257;74981;-60
2023/03/02 05:01:53;;;;;;;66.20;29.80;;;;;;;-4.89;77.82;101458.32;105490;1254;83518;-60
2023/03/02 05:04:21;;;;;;;71.90;30.10;;;;;;;-4.88;77.76;101461.58;105487;1254;73892;-60
2023/03/02 05:06:50;;;;;;;63.90;29.70;;;;;;;-4.92;77.42;101461.10;105523;1254;69128;-59
2023/03/02 05:09:19;;;;;;;66.80;30.20;;;;;;;-4.99;77.37;101464.39;105447;1254;69167;-60
2023/03/02 05:11:48;;;;;;;74.40;33.10;;;;;;;-5.04;77.36;101463.52;105507;1254;75225;-60
2023/03/02 05:14:16;;;;;;;79.50;32.90;;;;;;;-5.06;77.47;101465.09;105460;1254;83574;-60
2023/03/02 05:16:44;;;;;;;70.80;31.90;;;;;;;-5.06;77.52;101459.81;105526;1254;73734;-60
2023/03/02 05:19:12;;;;;;;88.10;36.00;;;;;;;-5.07;77.58;101463.84;105450;1254;69193;-59
2023/03/02 05:21:40;;;;;;;87.70;35.90;;;;;;;-5.10;77.53;101462.21;105383;1253;69160;-60
2023/03/02 05:24:11;;;;;;;87.20;36.90;;;;;;;-5.11;77.68;101464.20;105470;1256;74879;-60
2023/03/02 05:26:40;;;;;;;85.20;36.60;;;;;;;-5.08;77.66;101466.05;105498;1254;81509;-60
2023/03/02 05:29:08;;;;;;;97.50;38.00;;;;;;;-5.05;77.39;101470.92;105548;1256;73767;-60
2023/03/02 05:31:42;;;;;;;92.00;34.30;;;;;;;-5.06;77.42;101465.79;105429;1256;69196;-60
2023/03/02 05:34:12;;;;;;;64.80;28.00;;;;;;;-5.03;77.71;101463.19;105494;1254;69513;-60
2023/03/02 05:36:41;;;;;;;55.70;24.90;;;;;;;-4.98;77.91;101462.05;105451;1254;73997;-60
2023/03/02 05:39:09;;;;;;;57.80;28.90;;;;;;;-4.96;77.97;101463.15;105537;1254;82609;-60
2023/03/02 05:41:38;;;;;;;65.30;28.10;;;;;;;-4.96;78.06;101468.40;105545;1257;73331;-60
2023/03/02 05:44:08;;;;;;;70.30;30.80;;;;;;;-4.97;77.83;101474.35;105495;1256;69246;-59
2023/03/02 05:46:37;;;;;;;62.50;28.40;;;;;;;-5.01;77.59;101477.44;105465;1257;69116;-60
2023/03/02 05:49:05;;;;;;;70.00;29.50;;;;;;;-5.03;77.65;101475.80;105538;1256;73904;-60
2023/03/02 05:51:33;;;;;;;64.70;29.50;;;;;;;-5.05;77.70;101475.03;105515;1254;82449;-59
2023/03/02 05:54:01;;;;;;;63.90;30.00;;;;;;;-5.06;77.79;101476.52;105472;1253;72720;-60
2023/03/02 05:56:30;;;;;;;68.60;29.70;;;;;;;-5.07;77.81;101476.64;105726;1254;69083;-60
2023/03/02 05:58:59;;;;;;;63.10;28.80;;;;;;;-5.08;77.87;101478.27;105417;1256;69118;-59
2023/03/02 06:01:27;;;;;;;66.40;31.90;;;;;;;-5.10;78.19;101475.63;105493;1254;74585;-60
2023/03/02 06:03:55;;;;;;;69.50;31.40;;;;;;;-5.10;78.16;101478.89;105459;1256;83303;-59
2023/03/02 06:06:23;;;;;;;77.60;32.80;;;;;;;-5.11;78.19;101479.34;105455;1256;71599;-60
2023/03/02 06:08:51;;;;;;;68.20;31.10;;;;;;;-5.12;78.27;101483.42;105459;1254;69186;-59
2023/03/02 06:11:20;;;;;;;68.60;30.90;;;;;;;-5.10;78.41;101484.36;105478;1253;69166;-58
2023/03/02 06:13:48;;;;;;;69.60;30.50;;;;;;;-5.03;78.38;101479.38;105552;1254;73677;-60
2023/03/02 06:16:16;;;;;;;57.50;27.60;;;;;;;-4.99;78.35;101480.42;105534;1254;81964;-59
2023/03/02 06:18:44;;;;;;;56.40;29.20;;;;;;;-4.94;78.42;101477.89;105549;1256;72667;-59
2023/03/02 06:21:13;;;;;;;70.10;33.10;;;;;;;-4.87;78.57;101480.59;105921;1253;69134;-61
2023/03/02 06:23:41;;;;;;;71.90;31.40;;;;;;;-4.81;78.72;101486.30;105689;1252;69051;-60
2023/03/02 06:26:10;;;;;;;71.00;33.70;;;;;;;-4.74;79.07;101492.58;105581;1256;73959;-61
2023/03/02 06:28:39;;;;;;;72.50;32.80;;;;;;;-4.66;79.09;101497.83;105725;1255;83483;-61
2023/03/02 06:31:20;;;;;;;71.70;33.30;;;;;;;-4.58;79.45;101497.48;105597;1257;73503;-60
2023/03/02 06:33:49;;;;;;;77.60;37.00;;;;;;;-4.49;79.49;101501.94;105934;1253;69042;-60
2023/03/02 06:36:17;;;;;;;82.00;37.70;;;;;;;-4.44;79.62;101505.77;105847;1254;69227;-60
2023/03/02 06:38:45;;;;;;;107.00;45.40;;;;;;;-4.37;79.73;101508.76;105631;1253;73937;-60
2023/03/02 06:41:14;;;;;;;78.70;36.40;;;;;;;-4.29;79.97;101505.38;105556;1253;83298;-59
2023/03/02 06:43:43;;;;;;;69.70;35.00;;;;;;;-4.21;79.93;101498.48;105616;1254;73636;-60
2023/03/02 06:46:11;;;;;;;85.00;39.90;;;;;;;-4.14;79.90;101500.99;105593;1253;69162;-58
2023/03/02 06:48:40;;;;;;;186.70;69.50;;;;;;;-4.09;79.91;101507.20;105668;1252;69061;-60
2023/03/02 06:51:08;;;;;;;202.10;75.80;;;;;;;-4.03;79.86;101512.03;105564;1256;74598;-59
2023/03/02 06:53:36;;;;;;;139.80;58.50;;;;;;;-3.97;79.93;101509.67;105738;1257;83355;-59
2023/03/02 06:56:06;;;;;;;106.40;43.80;;;;;;;-3.91;80.10;101510.27;105637;1253;73385;-60
2023/03/02 06:58:35;;;;;;;77.70;36.40;;;;;;;-3.83;80.29;101509.05;105685;1256;69122;-60
2023/03/02 07:01:03;;;;;;;73.40;36.10;;;;;;;-3.73;80.50;101505.86;105516;1254;69186;-59
2023/03/02 07:03:32;;;;;;;70.40;35.50;;;;;;;-3.61;80.84;101503.07;105782;1254;74867;-59
2023/03/02 07:06:01;;;;;;;78.20;35.70;;;;;;;-3.49;80.89;101499.42;105678;1256;83544;-59
2023/03/02 07:08:29;;;;;;;60.00;31.90;;;;;;;-3.42;80.82;101500.23;105510;1256;73056;-59
2023/03/02 07:10:57;;;;;;;65.40;32.70;;;;;;;-3.33;80.83;101500.73;105521;1254;69250;-59
2023/03/02 07:13:26;;;;;;;63.30;31.10;;;;;;;-3.21;80.87;101499.45;105497;1253;69099;-59
2023/03/02 07:15:54;;;;;;;66.10;31.20;;;;;;;-3.10;81.04;101494.56;105576;1254;74910;-60
2023/03/02 07:18:22;;;;;;;72.10;33.70;;;;;;;-2.97;80.99;101496.55;105556;1254;82463;-58
2023/03/02 07:20:51;;;;;;;76.20;35.50;;;;;;;-2.88;81.07;101497.55;105769;1253;74321;-58
2023/03/02 07:23:19;;;;;;;90.90;40.50;;;;;;;-2.77;81.21;101498.98;105528;1257;69189;-58
2023/03/02 07:25:47;;;;;;;112.00;55.10;;;;;;;-2.68;81.30;101496.89;105578;1252;69011;-59
2023/03/02 07:28:15;;;;;;;97.80;46.90;;;;;;;-2.58;81.51;101498.05;105680;1254;73594;-60
2023/03/02 07:30:43;;;;;;;79.40;39.00;;;;;;;-2.49;81.72;101494.61;105718;1254;83390;-59
2023/03/02 07:33:12;;;;;;;81.90;40.10;;;;;;;-2.40;81.74;101494.40;105495;1251;73696;-59
2023/03/02 07:35:40;;;;;;;79.90;39.50;;;;;;;-2.32;81.71;101492.61;105782;1253;69039;-60
2023/03/02 07:38:08;;;;;;;136.80;58.60;;;;;;;-2.24;81.82;101491.52;105546;1254;69135;-59
2023/03/02 07:40:43;;;;;;;141.30;62.90;;;;;;;-2.13;81.82;101487.05;105769;1253;74921;-60
2023/03/02 07:43:11;;;;;;;160.70;71.80;;;;;;;-1.98;81.70;101488.39;105664;1257;83414;-59
2023/03/02 07:45:39;;;;;;;177.70;78.00;;;;;;;-1.84;81.63;101487.80;105654;1257;73521;-60
2023/03/02 07:48:07;;;;;;;162.10;70.20;;;;;;;-1.70;81.61;101484.95;105513;1254;69272;-60
2023/03/02 07:50:36;;;;;;;150.30;63.80;;;;;;;-1.57;81.79;101480.75;105585;1256;69170;-60
2023/03/02 07:53:04;;;;;;;117.50;53.60;;;;;;;-1.42;81.85;101483.06;105695;1256;72838;-59
2023/03/02 07:55:32;;;;;;;86.70;42.00;;;;;;;-1.28;81.96;101481.21;105558;1253;84085;-60
2023/03/02 07:58:00;;;;;;;64.20;31.30;;;;;;;-1.18;82.08;101480.84;105537;1254;74078;-60
2023/03/02 08:00:28;;;;;;;55.40;29.20;;;;;;;-1.06;81.85;101487.17;105687;1254;69114;-60
2023/03/02 08:02:57;;;;;;;55.20;29.40;;;;;;;-0.95;81.58;101487.13;105739;1255;69259;-61
2023/03/02 08:05:25;;;;;;;56.80;28.00;;;;;;;-0.85;81.51;101487.40;105746;1254;73475;-60
2023/03/02 08:07:53;;;;;;;57.40;29.70;;;;;;;-0.73;81.39;101486.69;106063;1256;83176;-60
2023/03/02 08:10:21;;;;;;;55.50;29.80;;;;;;;-0.62;81.34;101488.34;105530;1253;73668;-60
2023/03/02 08:12:50;;;;;;;53.20;28.10;;;;;;;-0.51;81.16;101484.86;105541;1254;69135;-60
2023/03/02 08:15:18;;;;;;;56.90;29.50;;;;;;;-0.41;80.86;101484.09;105503;1254;69082;-60
2023/03/02 08:17:47;;;;;;;53.20;28.40;;;;;;;-0.32;80.82;101485.35;105696;1254;74845;-59
2023/03/02 08:20:15;;;;;;;68.90;31.20;;;;;;;-0.20;80.86;101487.15;105533;1254;83395;-59
2023/03/02 08:22:43;;;;;;;57.60;30.20;;;;;;;-0.10;80.73;101486.56;105506;1254;73743;-59
2023/03/02 08:25:11;;;;;;;63.70;30.20;;;;;;;0.02;80.75;101485.64;105601;1254;69176;-58
2023/03/02 08:27:39;;;;;;;60.20;29.40;;;;;;;0.19;80.62;101483.77;105554;1257;69061;-59
2023/03/02 08:30:09;;;;;;;51.20;27.70;;;;;;;0.34;80.36;101484.81;105556;1256;75293;-58
2023/03/02 08:32:38;;;;;;;51.80;26.80;;;;;;;0.49;80.22;101481.02;105507;1254;82132;-59
2023/03/02 08:35:07;;;;;;;50.30;26.40;;;;;;;0.67;80.39;101472.61;105507;1254;72692;-60
2023/03/02 08:37:35;;;;;;;54.10;28.00;;;;;;;0.86;80.25;101475.42;105867;1256;69178;-60
2023/03/02 08:40:04;;;;;;;58.30;31.10;;;;;;;1.03;80.29;101470.40;105611;1256;69215;-60
2023/03/02 08:42:32;;;;;;;46.40;26.50;;;;;;;1.21;79.91;101470.92;105730;1256;73640;-60
2023/03/02 08:45:01;;;;;;;49.70;26.40;;;;;;;1.39;79.30;101463.84;105689;1256;112176;-59
2023/03/02 08:47:29;;;;;;;51.20;27.70;;;;;;;1.57;79.02;101467.95;105579;1254;73733;-61
2023/03/02 08:49:57;;;;;;;49.00;26.90;;;;;;;1.76;78.80;101467.40;105605;1254;68947;-61
2023/03/02 08:52:25;;;;;;;55.20;27.70;;;;;;;1.95;78.18;101463.37;105640;1257;69164;-60
2023/03/02 08:54:54;;;;;;;46.60;26.00;;;;;;;2.14;78.12;101460.39;105533;1256;75210;-60
2023/03/02 08:57:22;;;;;;;44.00;24.30;;;;;;;2.34;77.76;101454.80;105558;1254;83878;-60
2023/03/02 08:59:51;;;;;;;43.70;25.00;;;;;;;2.55;77.37;101446.96;105732;1252;73698;-61
2023/03/02 09:02:19;;;;;;;50.70;26.80;;;;;;;2.75;76.79;101448.78;105669;1254;69461;-61
2023/03/02 09:04:47;;;;;;;43.60;24.10;;;;;;;2.90;76.43;101444.27;105356;1258;69186;-61
2023/03/02 09:07:16;;;;;;;40.40;23.10;;;;;;;3.09;75.99;101441.20;105465;1256;74151;-61
2023/03/02 09:09:44;;;;;;;41.80;22.80;;;;;;;3.22;74.95;101439.09;105479;1256;83105;-61
2023/03/02 09:12:12;;;;;;;41.90;22.30;;;;;;;3.33;74.40;101441.95;105495;1254;73157;-61
2023/03/02 09:14:41;;;;;;;34.80;20.30;;;;;;;3.50;74.33;101441.42;105428;1256;69224;-59
2023/03/02 09:17:11;;;;;;;37.70;22.50;;;;;;;3.67;74.16;101439.67;105494;1256;69228;-59
2023/03/02 09:19:41;;;;;;;40.40;22.80;;;;;;;3.89;73.43;101439.30;105494;1256;73814;-59
2023/03/02 09:22:11;;;;;;;37.10;21.20;;;;;;;4.08;72.99;101433.02;105517;1254;82478;-59
2023/03/02 09:24:39;;;;;;;36.00;21.00;;;;;;;4.20;72.39;101432.93;105451;1256;73189;-59
2023/03/02 09:27:08;;;;;;;40.10;22.50;;;;;;;4.40;72.00;101427.32;105467;1253;69172;-59
2023/03/02 09:29:36;;;;;;;40.30;21.90;;;;;;;4.64;72.08;101429.50;105446;1254;69176;-59
2023/03/02 09:32:04;;;;;;;34.20;21.00;;;;;;;4.85;71.33;101427.14;105430;1256;74029;-59
2023/03/02 09:34:32;;;;;;;35.60;21.50;;;;;;;4.99;70.65;101421.82;105479;1254;82595;-59
2023/03/02 09:37:01;;;;;;;41.00;22.50;;;;;;;5.20;70.75;101419.95;105447;1254;73951;-60
2023/03/02 09:39:29;;;;;;;35.10;21.40;;;;;;;5.48;70.41;101421.19;105471;1254;69157;-60
2023/03/02 09:42:09;;;;;;;32.60;20.60;;;;;;;5.71;69.45;101422.58;105479;1254;69289;-59
2023/03/02 09:44:56;;;;;;;28.20;18.20;;;;;;;5.87;68.71;101421.34;105449;1254;75211;-59
2023/03/02 09:47:33;;;;;;;32.30;19.30;;;;;;;6.01;67.58;101423.59;105436;1253;82567;-60
2023/03/02 09:50:26;;;;;;;39.00;21.50;;;;;;;6.12;67.26;101421.50;105463;1254;73468;-60
2023/03/02 09:53:22;;;;;;;34.50;21.10;;;;;;;6.27;66.76;101416.95;105614;1253;69113;-60
2023/03/02 09:55:53;;;;;;;36.60;22.30;;;;;;;6.47;66.91;101413.23;105483;1254;69138;-60
2023/03/02 09:58:24;;;;;;;36.40;21.40;;;;;;;6.59;66.48;101414.23;105512;1254;74910;-60
2023/03/02 10:00:52;;;;;;;31.70;21.50;;;;;;;6.84;66.30;101415.31;105494;1254;82381;-60
2023/03/02 10:03:22;;;;;;;33.90;21.90;;;;;;;7.14;66.23;101413.75;105470;1256;73036;-60
2023/03/02 10:05:55;;;;;;;33.70;21.20;;;;;;;7.42;65.90;101415.46;105540;1254;69249;-60
2023/03/02 10:08:27;;;;;;;34.20;21.80;;;;;;;7.58;65.01;101414.29;105500;1254;69191;-60
2023/03/02 10:11:11;;;;;;;33.50;21.70;;;;;;;7.70;64.35;101410.01;105492;1253;74879;-60
2023/03/02 10:13:45;;;;;;;34.00;22.50;;;;;;;7.97;64.28;101409.92;105527;1254;82664;-60
2023/03/02 10:16:33;;;;;;;31.10;20.50;;;;;;;8.19;63.73;101409.52;105508;1253;73855;-60
2023/03/02 10:19:23;;;;;;;30.00;19.90;;;;;;;8.44;63.40;101405.08;105621;1254;69137;-60
2023/03/02 10:22:01;;;;;;;30.60;21.10;;;;;;;8.73;62.96;101400.17;105515;1253;69112;-60
2023/03/02 10:24:56;;;;;;;32.50;21.10;;;;;;;9.03;62.41;101396.64;105538;1254;74906;-58
2023/03/02 10:27:49;;;;;;;33.40;22.70;;;;;;;9.31;61.95;101400.21;105488;1254;82145;-59
2023/03/02 10:30:36;;;;;;;35.60;23.70;;;;;;;9.49;61.14;101394.70;105484;1253;73798;-60
2023/03/02 10:33:13;;;;;;;37.00;23.20;;;;;;;9.63;60.55;101393.40;105709;1254;69180;-61
2023/03/02 10:35:46;;;;;;;32.20;23.20;;;;;;;9.75;60.02;101391.80;105488;1253;69109;-61
2023/03/02 10:38:17;;;;;;;34.30;22.10;;;;;;;9.89;59.84;101387.71;105521;1256;75009;-59
2023/03/02 10:40:58;;;;;;;32.60;22.50;;;;;;;10.06;59.51;101384.59;105468;1254;83386;-59
2023/03/02 10:43:36;;;;;;;31.90;21.00;;;;;;;10.24;58.89;101380.23;105485;1252;73983;-59
2023/03/02 10:46:10;;;;;;;33.20;20.70;;;;;;;10.47;58.93;101377.69;105605;1257;69196;-59
2023/03/02 10:48:54;;;;;;;28.50;20.80;;;;;;;10.75;58.77;101372.89;105469;1254;69110;-57
2023/03/02 10:51:22;;;;;;;30.20;21.70;;;;;;;11.04;58.28;101372.75;105514;1252;74983;-57
2023/03/02 10:54:05;;;;;;;32.20;22.20;;;;;;;11.31;58.00;101364.41;105570;1254;83467;-57
2023/03/02 10:56:34;;;;;;;27.20;20.90;;;;;;;11.47;57.09;101364.34;105360;1259;72518;-57
2023/03/02 10:59:28;;;;;;;31.80;24.20;;;;;;;11.53;56.44;101363.52;105518;1256;69613;-57
2023/03/02 11:02:21;;;;;;;40.20;29.60;;;;;;;11.63;55.76;101360.98;105558;1253;69142;-58
2023/03/02 11:04:59;;;;;;;45.20;32.30;;;;;;;11.80;56.08;101354.77;105737;1256;73243;-57
2023/03/02 11:07:28;;;;;;;42.80;30.50;;;;;;;11.92;55.86;101353.94;105311;1259;83288;-58
2023/03/02 11:10:17;;;;;;;46.10;34.60;;;;;;;11.99;55.39;101349.00;105683;1256;73575;-58
2023/03/02 11:12:47;;;;;;;44.60;32.00;;;;;;;12.06;55.07;101342.16;105513;1256;69118;-56
2023/03/02 11:15:15;;;;;;;;;;;;;;;12.11;54.75;101339.73;105454;1254;69225;-58
2023/03/02 11:17:45;;;;;;;48.20;34.00;;;;;;;12.12;54.54;101333.40;105513;1254;74733;-58
2023/03/02 11:20:22;;;;;;;46.30;33.30;;;;;;;12.12;54.18;101335.16;105545;1254;83431;-58